Kansas City, Missouri
Current Conditions -  °F | °C
As of 9:54 AM on Saturday 20 Dec 2014 (Local Time) from KMKC Reporting Station
Overcast Overcast  
Wind Chill: 30°   Ceiling: 1200
Heat Index: 37°   Visibility: 8mi
Dew Point: 32°   Wind: 9mph
Humidity: 82%   Direction: 190°S
Pressure: 30.2"   Gusts: NA
Location:  39.1°N, 94.58°W
Report Text: KMKC 201554Z 19008KT 8SM OVC012 03/00 A3020 RMK AO2 SLP231 T00280000
Loading
Personal Weather Stations






























Interactive Weather Map New forecast layout! Learn more

10-Day Weather Forecast

Advertisements
Track Severe Weather on mobile